createdAt,value
2023-02-24T00:00:37.945Z,86826.34
2023-02-24T00:03:11.429Z,86826.34
2023-02-24T00:05:44.545Z,87083.34
2023-02-24T00:08:13.091Z,87340.31
2023-02-24T00:10:41.846Z,85541.78
2023-02-24T00:13:13.216Z,84771.25
2023-02-24T00:15:45.961Z,83487.44
2023-02-24T00:18:14.313Z,81690.91
2023-02-24T00:20:42.743Z,80151.75
2023-02-24T00:23:11.332Z,80408.22
2023-02-24T00:25:39.977Z,83230.72
2023-02-24T00:28:08.926Z,84514.44
2023-02-24T00:30:37.331Z,88368.50
2023-02-24T00:33:07.253Z,88882.69
2023-02-24T00:35:35.855Z,85798.66
2023-02-24T00:38:04.736Z,84000.91
2023-02-24T00:40:37.293Z,84771.25
2023-02-24T00:43:08.027Z,84514.44
2023-02-24T00:45:39.200Z,85541.78
2023-02-24T00:48:10.888Z,88368.50
2023-02-24T00:50:40.345Z,89911.31
2023-02-24T00:53:10.778Z,91454.81
2023-02-24T00:55:39.109Z,90425.72
2023-02-24T00:58:07.844Z,90425.72
2023-02-24T01:00:37.626Z,90425.72
2023-02-24T01:03:08.453Z,90940.22
2023-02-24T01:05:38.680Z,91454.81
2023-02-24T01:08:07.125Z,91712.13
2023-02-24T01:10:36.071Z,91454.81
2023-02-24T01:13:03.776Z,91454.81
2023-02-24T01:15:32.193Z,91454.81
2023-02-24T01:18:00.638Z,92484.19
2023-02-24T01:20:30.726Z,92484.19
2023-02-24T01:22:59.156Z,92741.59
2023-02-24T01:25:31.434Z,94543.91
2023-02-24T01:27:59.884Z,95574.19
2023-02-24T01:30:29.058Z,95831.81
2023-02-24T01:32:59.908Z,96089.47
2023-02-24T01:35:35.025Z,96347.13
2023-02-24T01:38:04.276Z,97120.22
2023-02-24T01:40:33.050Z,97120.22
2023-02-24T01:43:01.675Z,97635.72
2023-02-24T01:45:36.801Z,98151.31
2023-02-24T01:48:09.687Z,98409.13
2023-02-24T01:50:39.939Z,98924.81
2023-02-24T01:53:11.211Z,98924.81
2023-02-24T01:55:46.664Z,98924.81
2023-02-24T01:58:22.302Z,98924.81
2023-02-24T02:00:51.750Z,98924.81
2023-02-24T02:03:26.611Z,99182.69
2023-02-24T02:06:01.249Z,99182.69
2023-02-24T02:08:30.518Z,99182.69
2023-02-24T02:11:04.661Z,99182.69
2023-02-24T02:13:38.225Z,99440.56
2023-02-24T02:16:26.116Z,99956.41
2023-02-24T02:19:10.488Z,99182.69
2023-02-24T02:22:06.952Z,99182.69
2023-02-24T02:24:54.558Z,99440.56
2023-02-24T02:27:48.126Z,99182.69
2023-02-24T02:30:51.640Z,99182.69
2023-02-24T02:33:56.980Z,98151.31
2023-02-24T02:36:33.061Z,98409.13
2023-02-24T02:39:12.809Z,98151.31
2023-02-24T02:41:54.499Z,98151.31
2023-02-24T02:44:32.395Z,97635.72
2023-02-24T02:47:09.103Z,97377.97
2023-02-24T02:49:45.576Z,98409.13
2023-02-24T02:52:18.873Z,98666.94
2023-02-24T02:54:52.923Z,99182.69
2023-02-24T02:57:25.302Z,98924.81
2023-02-24T02:59:58.375Z,99182.69
2023-02-24T03:02:40.146Z,99956.41
2023-02-24T03:05:12.970Z,100214.34
2023-02-24T03:07:46.381Z,99698.47
2023-02-24T03:10:22.619Z,99182.69
2023-02-24T03:12:55.394Z,99440.56
2023-02-24T03:15:30.411Z,99698.47
2023-02-24T03:18:10.690Z,99698.47
2023-02-24T03:20:48.102Z,100214.34
2023-02-24T03:23:19.887Z,100988.31
2023-02-24T03:25:58.803Z,101504.38
2023-02-24T03:28:37.449Z,101246.34
2023-02-24T03:31:11.228Z,102020.53
2023-02-24T03:33:45.296Z,102278.66
2023-02-24T03:36:15.282Z,102536.75
2023-02-24T03:38:50.491Z,102794.91
2023-02-24T03:41:20.518Z,102278.66
2023-02-24T03:43:51.147Z,101504.38
2023-02-24T03:46:19.922Z,101504.38
2023-02-24T03:48:56.804Z,100988.31
2023-02-24T03:51:27.732Z,100214.34
2023-02-24T03:54:11.902Z,99956.41
2023-02-24T03:56:57.936Z,100214.34
2023-02-24T03:59:40.572Z,99956.41
2023-02-24T04:02:15.957Z,100214.34
2023-02-24T04:04:55.599Z,100730.31
2023-02-24T04:07:52.400Z,98924.81
2023-02-24T04:10:27.575Z,97635.72
2023-02-24T04:13:03.523Z,97377.97
2023-02-24T04:15:38.608Z,96862.50
2023-02-24T04:18:15.306Z,96862.50
2023-02-24T04:20:49.477Z,96862.50
2023-02-24T04:23:24.730Z,96862.50
2023-02-24T04:25:56.432Z,97120.22
2023-02-24T04:28:27.252Z,97635.72
2023-02-24T04:31:00.804Z,97377.97
2023-02-24T04:33:29.400Z,98151.31
2023-02-24T04:35:57.857Z,97893.50
2023-02-24T04:38:29.060Z,98151.31
2023-02-24T04:40:57.879Z,97635.72
2023-02-24T04:43:26.251Z,98151.31
2023-02-24T04:45:55.826Z,98924.81
2023-02-24T04:48:24.218Z,100214.34
2023-02-24T04:50:55.429Z,100214.34
2023-02-24T04:53:27.286Z,98151.31
2023-02-24T04:55:58.558Z,98151.31
2023-02-24T04:58:28.676Z,94801.44
2023-02-24T05:00:57.636Z,95316.59
2023-02-24T05:03:31.273Z,95574.19
2023-02-24T05:06:01.398Z,92999.00
2023-02-24T05:08:31.270Z,91712.13
2023-02-24T05:11:04.165Z,89911.31
2023-02-24T05:13:37.665Z,86055.56
2023-02-24T05:16:08.662Z,83230.72
2023-02-24T05:18:38.130Z,80664.72
2023-02-24T05:21:26.174Z,81177.78
2023-02-24T05:23:55.886Z,83744.16
2023-02-24T05:26:26.506Z,79126.03
2023-02-24T05:28:56.633Z,74258.06
2023-02-24T05:31:28.438Z,75794.56
2023-02-24T05:33:58.805Z,72210.47
2023-02-24T05:36:29.440Z,64991.63
2023-02-24T05:38:59.640Z,63872.75
2023-02-24T05:41:32.724Z,66394.28
2023-02-24T05:44:04.889Z,61424.81
2023-02-24T05:46:37.958Z,59361.00
2023-02-24T05:49:09.866Z,57929.41
2023-02-24T05:51:43.693Z,58168.28
2023-02-24T05:54:15.182Z,57796.03
2023-02-24T05:56:44.949Z,55833.88
2023-02-24T05:59:18.327Z,55463.88
2023-02-24T06:01:46.814Z,55270.94
2023-02-24T06:04:27.972Z,55360.44
2023-02-24T06:06:56.438Z,55105.84
2023-02-24T06:09:24.740Z,55278.88
2023-02-24T06:11:54.760Z,55477.81
2023-02-24T06:14:23.917Z,55442.00
2023-02-24T06:16:52.502Z,55434.03
2023-02-24T06:19:21.208Z,55356.47
2023-02-24T06:21:52.772Z,55253.03
2023-02-24T06:24:21.420Z,54970.59
2023-02-24T06:26:53.619Z,55066.06
2023-02-24T06:29:25.095Z,54986.50
2023-02-24T06:31:54.773Z,55163.53
2023-02-24T06:34:25.208Z,55161.53
2023-02-24T06:36:53.794Z,55173.47
2023-02-24T06:39:22.238Z,54930.81
2023-02-24T06:41:52.950Z,54982.53
2023-02-24T06:44:21.479Z,54994.47
2023-02-24T06:46:51.413Z,54998.44
2023-02-24T06:49:19.910Z,55185.41
2023-02-24T06:51:48.746Z,55471.84
2023-02-24T06:54:17.609Z,55372.38
2023-02-24T06:56:47.877Z,55547.44
2023-02-24T06:59:21.850Z,55262.97
2023-02-24T07:01:54.098Z,55370.38
2023-02-24T07:04:27.789Z,55276.91
2023-02-24T07:07:02.231Z,55432.06
2023-02-24T07:09:32.153Z,55495.69
2023-02-24T07:12:03.005Z,55249.06
2023-02-24T07:14:32.118Z,55280.88
2023-02-24T07:17:01.997Z,55203.31
2023-02-24T07:19:32.711Z,55137.66
2023-02-24T07:22:03.769Z,55203.31
2023-02-24T07:24:36.706Z,55245.06
2023-02-24T07:27:07.222Z,55257.00
2023-02-24T07:29:37.860Z,55076.00
2023-02-24T07:32:10.092Z,55042.19
2023-02-24T07:34:40.511Z,55006.38
2023-02-24T07:37:10.286Z,55078.00
2023-02-24T07:39:40.015Z,55213.25
2023-02-24T07:42:10.136Z,55018.31
2023-02-24T07:44:46.974Z,55000.41
2023-02-24T07:47:16.897Z,54883.06
2023-02-24T07:49:46.030Z,54934.78
2023-02-24T07:52:16.264Z,54992.47
2023-02-24T07:54:44.777Z,54982.53
2023-02-24T07:57:14.758Z,54924.84
2023-02-24T07:59:47.652Z,54847.28
2023-02-24T08:02:18.520Z,54879.09
2023-02-24T08:04:51.524Z,54885.06
2023-02-24T08:07:25.234Z,54867.16
2023-02-24T08:10:24.401Z,54891.03
2023-02-24T08:13:03.119Z,54803.53
2023-02-24T08:15:34.401Z,54827.38
2023-02-24T08:18:04.537Z,54835.34
2023-02-24T08:20:52.164Z,54775.69
2023-02-24T08:23:23.629Z,54857.22
2023-02-24T08:25:53.788Z,54837.34
2023-02-24T08:28:26.923Z,54857.22
2023-02-24T08:30:55.518Z,54767.72
2023-02-24T08:33:30.342Z,54831.38
2023-02-24T08:36:02.052Z,54839.31
2023-02-24T08:38:42.188Z,54801.53
2023-02-24T08:41:20.393Z,54803.53
2023-02-24T08:43:50.034Z,54823.41
2023-02-24T08:46:26.500Z,54795.56
2023-02-24T08:49:00.760Z,54793.56
2023-02-24T08:51:34.827Z,54787.63
2023-02-24T08:54:11.189Z,54739.88
2023-02-24T08:56:44.005Z,54721.97
2023-02-24T08:59:29.455Z,54803.53
2023-02-24T09:02:13.594Z,54656.34
2023-02-24T09:04:45.593Z,54600.66
2023-02-24T09:07:16.480Z,54582.78
2023-02-24T09:09:45.760Z,54505.22
2023-02-24T09:12:22.223Z,54523.09
2023-02-24T09:14:55.525Z,54487.31
2023-02-24T09:17:40.052Z,54439.59
2023-02-24T09:20:56.414Z,54457.47
2023-02-24T09:23:31.024Z,54393.84
2023-02-24T09:26:11.171Z,54381.91
2023-02-24T09:28:48.859Z,54364.03
2023-02-24T09:31:18.191Z,54425.66
2023-02-24T09:33:51.148Z,54403.78
2023-02-24T09:36:28.232Z,54377.94
2023-02-24T09:39:14.844Z,54358.06
2023-02-24T09:41:56.704Z,54346.13
2023-02-24T09:44:35.614Z,54330.22
2023-02-24T09:47:19.012Z,54330.22
2023-02-24T09:49:56.704Z,54258.63
2023-02-24T09:52:39.888Z,54250.69
2023-02-24T09:55:26.216Z,54278.50
2023-02-24T09:58:15.250Z,54230.78
2023-02-24T10:00:53.696Z,54254.66
2023-02-24T10:03:42.381Z,54262.59
2023-02-24T10:06:20.872Z,54244.72
2023-02-24T10:08:59.386Z,54258.63
2023-02-24T10:11:34.409Z,54258.63
2023-02-24T10:14:07.068Z,54290.44
2023-02-24T10:16:46.426Z,54256.63
2023-02-24T10:19:28.298Z,54264.59
2023-02-24T10:22:04.408Z,54248.69
2023-02-24T10:24:41.352Z,54290.44
2023-02-24T10:27:18.270Z,54258.63
2023-02-24T10:30:01.331Z,54254.66
2023-02-24T10:32:41.452Z,54294.41
2023-02-24T10:35:16.762Z,54302.38
2023-02-24T10:37:45.739Z,54250.69
2023-02-24T10:40:26.587Z,54282.50
2023-02-24T10:43:10.870Z,54228.81
2023-02-24T10:45:45.410Z,54270.56
2023-02-24T10:48:40.412Z,54272.53
2023-02-24T10:51:20.117Z,54286.47
2023-02-24T10:54:10.311Z,54330.22
2023-02-24T10:56:44.969Z,54350.09
2023-02-24T10:59:41.366Z,54407.78
2023-02-24T11:02:29.817Z,54425.66
2023-02-24T11:05:17.106Z,54455.50
2023-02-24T11:07:53.823Z,54483.34
2023-02-24T11:10:32.492Z,54465.44
2023-02-24T11:13:20.480Z,54417.72
2023-02-24T11:16:08.596Z,54451.53
2023-02-24T11:18:39.252Z,54501.22
2023-02-24T11:21:12.175Z,54529.06
2023-02-24T11:23:43.383Z,54544.97
2023-02-24T11:26:17.829Z,54558.91
2023-02-24T11:29:00.906Z,54618.56
2023-02-24T11:31:51.985Z,54682.22
2023-02-24T11:34:28.951Z,54747.84
2023-02-24T11:37:09.193Z,54815.47
2023-02-24T11:39:53.186Z,54942.75
2023-02-24T11:42:26.905Z,55117.78
2023-02-24T11:45:03.765Z,55296.78
2023-02-24T11:47:37.912Z,55686.69
2023-02-24T11:50:23.544Z,55953.25
2023-02-24T11:52:53.531Z,56084.56
2023-02-24T11:55:28.399Z,56389.00
2023-02-24T11:58:01.562Z,56554.13
2023-02-24T12:00:37.472Z,56713.34
2023-02-24T12:03:14.909Z,57053.63
2023-02-24T12:05:48.974Z,57306.38
2023-02-24T12:08:26.723Z,57726.38
2023-02-24T12:11:03.287Z,58648.13
2023-02-24T12:13:40.580Z,58357.44
2023-02-24T12:16:16.951Z,58474.91
2023-02-24T12:18:53.062Z,59090.16
2023-02-24T12:21:26.591Z,60058.09
2023-02-24T12:23:55.164Z,60757.31
2023-02-24T12:26:27.358Z,60675.63
2023-02-24T12:29:18.756Z,61074.13
2023-02-24T12:31:57.743Z,60444.53
2023-02-24T12:34:43.072Z,62118.34
2023-02-24T12:37:31.657Z,61982.81
2023-02-24T12:40:11.756Z,62329.63
2023-02-24T12:42:48.043Z,61976.84
2023-02-24T12:45:22.422Z,62100.41
2023-02-24T12:48:05.056Z,63529.75
2023-02-24T12:50:43.548Z,63019.34
2023-02-24T12:53:21.907Z,63398.16
2023-02-24T12:55:59.641Z,62959.53
2023-02-24T12:58:34.345Z,62473.16
2023-02-24T13:01:13.052Z,64257.63
2023-02-24T13:03:56.385Z,63836.84
2023-02-24T13:06:38.430Z,63665.34
2023-02-24T13:09:19.016Z,64439.13
2023-02-24T13:11:55.387Z,65161.19
2023-02-24T13:14:30.168Z,64901.88
2023-02-24T13:17:08.488Z,63868.75
2023-02-24T13:19:40.197Z,67795.47
2023-02-24T13:22:20.759Z,69434.94
2023-02-24T13:25:00.141Z,68528.25
2023-02-24T13:27:31.055Z,71698.75
2023-02-24T13:30:01.765Z,71442.94
2023-02-24T13:32:33.736Z,72722.25
2023-02-24T13:35:07.065Z,74514.09
2023-02-24T13:37:38.140Z,74258.06
2023-02-24T13:40:26.687Z,77075.53
2023-02-24T13:43:04.928Z,78613.28
2023-02-24T13:45:39.869Z,79382.44
2023-02-24T13:48:42.840Z,81690.91
2023-02-24T13:51:30.189Z,83744.16
2023-02-24T13:54:10.226Z,84257.66
2023-02-24T13:56:44.953Z,84000.91
2023-02-24T13:59:31.655Z,84257.66
2023-02-24T14:02:02.618Z,85284.91
2023-02-24T14:04:33.040Z,86569.41
2023-02-24T14:07:04.908Z,87597.34
2023-02-24T14:09:36.107Z,88111.41
2023-02-24T14:12:15.416Z,88368.50
2023-02-24T14:14:47.109Z,89396.97
2023-02-24T14:17:24.607Z,90168.50
2023-02-24T14:19:53.004Z,91712.13
2023-02-24T14:22:23.198Z,91712.13
2023-02-24T14:25:02.634Z,92484.19
2023-02-24T14:27:31.829Z,94286.38
2023-02-24T14:30:03.382Z,94801.44
2023-02-24T14:32:34.559Z,95574.19
2023-02-24T14:35:03.101Z,95316.59
2023-02-24T14:37:34.724Z,95831.81
2023-02-24T14:40:06.002Z,96089.47
2023-02-24T14:42:34.545Z,95316.59
2023-02-24T14:45:03.146Z,95316.59
2023-02-24T14:47:33.573Z,95059.00
2023-02-24T14:50:05.524Z,95059.00
2023-02-24T14:52:41.178Z,95059.00
2023-02-24T14:55:15.902Z,93771.38
2023-02-24T14:57:48.911Z,94543.91
2023-02-24T15:00:24.250Z,95059.00
2023-02-24T15:02:58.560Z,96347.13
2023-02-24T15:05:27.273Z,92226.81
2023-02-24T15:07:58.602Z,90940.22
2023-02-24T15:10:30.153Z,88882.69
2023-02-24T15:13:01.852Z,89911.31
2023-02-24T15:15:35.770Z,90168.50
2023-02-24T15:18:13.452Z,92226.81
2023-02-24T15:20:42.129Z,92226.81
2023-02-24T15:23:28.172Z,92226.81
2023-02-24T15:25:56.578Z,91969.47
2023-02-24T15:28:31.054Z,92226.81
2023-02-24T15:31:07.925Z,91969.47
2023-02-24T15:33:40.719Z,91454.81
2023-02-24T15:36:17.346Z,92226.81
2023-02-24T15:38:47.934Z,91454.81
2023-02-24T15:41:16.436Z,91712.13
2023-02-24T15:43:50.333Z,91969.47
2023-02-24T15:46:29.718Z,91969.47
2023-02-24T15:49:03.273Z,91454.81
2023-02-24T15:51:38.696Z,92226.81
2023-02-24T15:54:13.828Z,91969.47
2023-02-24T15:56:44.241Z,91454.81
2023-02-24T15:59:15.446Z,90168.50
2023-02-24T16:01:43.969Z,90940.22
2023-02-24T16:04:12.605Z,90682.97
2023-02-24T16:06:54.343Z,88368.50
2023-02-24T16:09:32.417Z,86312.47
2023-02-24T16:12:01.692Z,83230.72
2023-02-24T16:14:30.032Z,77075.53
2023-02-24T16:16:59.468Z,72722.25
2023-02-24T16:19:27.926Z,69816.47
2023-02-24T16:21:56.533Z,67268.47
2023-02-24T16:24:26.419Z,69930.34
2023-02-24T16:26:55.020Z,69782.50
2023-02-24T16:29:23.553Z,67927.25
2023-02-24T16:31:52.209Z,64989.66
2023-02-24T16:34:20.884Z,64207.78
2023-02-24T16:36:49.593Z,64431.16
2023-02-24T16:39:18.051Z,62824.00
2023-02-24T16:41:47.876Z,62120.34
2023-02-24T16:44:16.292Z,61090.06
2023-02-24T16:46:46.295Z,60334.97
2023-02-24T16:49:19.861Z,60597.94
2023-02-24T16:51:48.751Z,59472.53
2023-02-24T16:54:17.361Z,58998.56
2023-02-24T16:56:47.517Z,59661.72
2023-02-24T16:59:15.889Z,58212.09
2023-02-24T17:01:44.319Z,58815.38
2023-02-24T17:04:14.337Z,57867.69
2023-02-24T17:06:43.031Z,57843.81
2023-02-24T17:09:15.501Z,57722.38
2023-02-24T17:11:44.241Z,56922.28
2023-02-24T17:14:17.456Z,56842.69
2023-02-24T17:16:46.511Z,57119.31
2023-02-24T17:19:15.531Z,57067.56
2023-02-24T17:21:46.093Z,56800.91
2023-02-24T17:24:16.722Z,57308.38
2023-02-24T17:26:45.621Z,57640.78
2023-02-24T17:29:16.002Z,58170.28
2023-02-24T17:31:44.553Z,58138.44
2023-02-24T17:34:13.001Z,58761.59
2023-02-24T17:36:41.489Z,59486.47
2023-02-24T17:39:10.027Z,59572.09
2023-02-24T17:41:38.528Z,60169.63
2023-02-24T17:44:07.144Z,60854.94
2023-02-24T17:46:36.968Z,60727.44
2023-02-24T17:49:06.211Z,61020.31
2023-02-24T17:51:34.928Z,59488.47
2023-02-24T17:54:03.340Z,59261.41
2023-02-24T17:56:31.750Z,59237.53
2023-02-24T17:59:01.132Z,59014.50
2023-02-24T18:01:29.981Z,57740.31
2023-02-24T18:03:59.731Z,57559.16
2023-02-24T18:06:28.432Z,57151.16
2023-02-24T18:08:56.848Z,56948.16
2023-02-24T18:11:25.277Z,57290.47
2023-02-24T18:13:55.297Z,57648.75
2023-02-24T18:16:24.157Z,57527.31
2023-02-24T18:18:53.002Z,57186.97
2023-02-24T18:21:23.221Z,57039.69
2023-02-24T18:23:51.763Z,57616.88
2023-02-24T18:26:23.493Z,57847.78
2023-02-24T18:28:53.908Z,58580.41
2023-02-24T18:31:26.710Z,59333.13
2023-02-24T18:33:57.727Z,59323.16
2023-02-24T18:36:28.107Z,60151.72
2023-02-24T18:38:58.387Z,60862.91
2023-02-24T18:41:27.495Z,62078.50
2023-02-24T18:43:59.304Z,62060.56
2023-02-24T18:46:28.872Z,63308.44
2023-02-24T18:48:57.952Z,64203.78
2023-02-24T18:51:29.196Z,64961.72
2023-02-24T18:54:01.630Z,66496.06
2023-02-24T18:56:32.255Z,69564.78
2023-02-24T18:59:02.299Z,71187.13
2023-02-24T19:01:32.902Z,73234.09
2023-02-24T19:04:01.908Z,75538.44
2023-02-24T19:06:33.315Z,77075.53
2023-02-24T19:09:03.596Z,77844.31
2023-02-24T19:11:32.062Z,79895.28
2023-02-24T19:14:01.370Z,80921.25
2023-02-24T19:16:30.316Z,81434.31
2023-02-24T19:18:59.822Z,81690.91
2023-02-24T19:21:30.399Z,82974.03
2023-02-24T19:24:03.688Z,85028.06
2023-02-24T19:26:32.281Z,86312.47
2023-02-24T19:29:01.129Z,86569.41
2023-02-24T19:31:31.496Z,87597.34
2023-02-24T19:34:02.232Z,88111.41
2023-02-24T19:36:32.411Z,88625.56
2023-02-24T19:39:02.285Z,89139.81
2023-02-24T19:41:31.262Z,89396.97
2023-02-24T19:43:59.674Z,89911.31
2023-02-24T19:46:31.583Z,90168.50
2023-02-24T19:49:00.039Z,89911.31
2023-02-24T19:51:29.232Z,90425.72
2023-02-24T19:53:59.773Z,90425.72
2023-02-24T19:56:31.545Z,90168.50
2023-02-24T19:59:01.329Z,88368.50
2023-02-24T20:01:30.829Z,87854.38
2023-02-24T20:04:03.834Z,86055.56
2023-02-24T20:06:35.756Z,84257.66
2023-02-24T20:09:07.520Z,83487.44
2023-02-24T20:11:38.197Z,82204.09
2023-02-24T20:14:07.693Z,80921.25
2023-02-24T20:16:39.172Z,80921.25
2023-02-24T20:19:09.233Z,80408.22
2023-02-24T20:21:38.707Z,79382.44
2023-02-24T20:24:11.141Z,79126.03
2023-02-24T20:26:43.293Z,78869.66
2023-02-24T20:29:12.515Z,78100.63
2023-02-24T20:31:41.508Z,77844.31
2023-02-24T20:34:10.821Z,77844.31
2023-02-24T20:36:39.422Z,76050.72
2023-02-24T20:39:08.467Z,74770.16
2023-02-24T20:41:37.196Z,74770.16
2023-02-24T20:44:07.230Z,74514.09
2023-02-24T20:46:36.487Z,74258.06
2023-02-24T20:49:06.857Z,73490.06
2023-02-24T20:51:38.203Z,72722.25
2023-02-24T20:54:07.911Z,71954.59
2023-02-24T20:56:38.318Z,72978.16
2023-02-24T20:59:10.071Z,73234.09
2023-02-24T21:01:39.401Z,73746.06
2023-02-24T21:04:09.152Z,72978.16
2023-02-24T21:06:38.325Z,73746.06
2023-02-24T21:09:07.509Z,74770.16
2023-02-24T21:11:36.425Z,75282.31
2023-02-24T21:14:06.077Z,75538.44
2023-02-24T21:16:36.504Z,72722.25
2023-02-24T21:19:05.201Z,71698.75
2023-02-24T21:21:33.859Z,68881.72
2023-02-24T21:24:02.554Z,67539.94
2023-02-24T21:26:31.064Z,66063.00
2023-02-24T21:28:59.781Z,65943.28
2023-02-24T21:31:29.093Z,64076.16
2023-02-24T21:33:59.093Z,62831.97
2023-02-24T21:36:28.261Z,63378.22
2023-02-24T21:38:56.962Z,62373.47
2023-02-24T21:41:25.453Z,62295.75
2023-02-24T21:43:55.902Z,62253.88
2023-02-24T21:46:28.551Z,62317.66
2023-02-24T21:48:59.902Z,62355.53
2023-02-24T21:51:29.677Z,62469.16
2023-02-24T21:53:59.349Z,62939.63
2023-02-24T21:56:29.851Z,61883.16
2023-02-24T21:59:00.233Z,61590.22
2023-02-24T22:01:32.306Z,61717.75
2023-02-24T22:04:03.895Z,61919.03
2023-02-24T22:06:34.411Z,61771.56
2023-02-24T22:09:05.158Z,62407.38
2023-02-24T22:11:36.461Z,62564.84
2023-02-24T22:14:05.597Z,63111.06
2023-02-24T22:16:34.247Z,62558.84
2023-02-24T22:19:04.662Z,62857.88
2023-02-24T22:21:33.963Z,62475.13
2023-02-24T22:24:04.652Z,62652.53
2023-02-24T22:26:33.314Z,62166.19
2023-02-24T22:29:02.900Z,62060.56
2023-02-24T22:31:36.964Z,62162.19
2023-02-24T22:34:09.023Z,62959.53
2023-02-24T22:36:38.688Z,62788.09
2023-02-24T22:39:09.459Z,63577.63
2023-02-24T22:41:38.440Z,63436.06
2023-02-24T22:44:07.534Z,63832.88
2023-02-24T22:46:38.028Z,62517.00
2023-02-24T22:49:08.292Z,61646.00
2023-02-24T22:51:37.068Z,61787.50
2023-02-24T22:54:06.953Z,60346.94
2023-02-24T22:56:35.926Z,59412.78
2023-02-24T22:59:04.945Z,59251.47
2023-02-24T23:01:36.149Z,58775.53
2023-02-24T23:04:08.255Z,58638.16
2023-02-24T23:06:38.017Z,58974.66
2023-02-24T23:09:07.338Z,58206.13
2023-02-24T23:11:38.973Z,58098.63
2023-02-24T23:14:10.635Z,58429.09
2023-02-24T23:16:39.950Z,59586.03
2023-02-24T23:19:13.144Z,58791.47
2023-02-24T23:21:45.213Z,58234.00
2023-02-24T23:24:15.830Z,58295.72
2023-02-24T23:26:46.123Z,58839.25
2023-02-24T23:29:18.441Z,58315.63
2023-02-24T23:31:47.807Z,57917.47
2023-02-24T23:34:17.861Z,57774.13
2023-02-24T23:36:47.814Z,58550.56
2023-02-24T23:39:20.471Z,58066.75
2023-02-24T23:41:49.533Z,57533.28
2023-02-24T23:44:18.486Z,57638.78
2023-02-24T23:46:46.927Z,57433.78
2023-02-24T23:49:16.151Z,57533.28
2023-02-24T23:51:48.826Z,57445.72
2023-02-24T23:54:18.458Z,57409.88
2023-02-24T23:56:46.985Z,57137.22
2023-02-24T23:59:15.429Z,57163.09
